createdAt,value
2023-01-17T00:02:00.808Z,1.65
2023-01-17T00:04:46.878Z,2.78
2023-01-17T00:07:33.785Z,7.13
2023-01-17T00:10:07.060Z,2.13
2023-01-17T00:12:34.478Z,1.50
2023-01-17T00:15:01.592Z,1.80
2023-01-17T00:17:29.550Z,2.08
2023-01-17T00:20:15.783Z,1.50
2023-01-17T00:23:02.738Z,2.22
2023-01-17T00:25:52.118Z,2.15
2023-01-17T00:28:19.242Z,1.77
2023-01-17T00:30:46.184Z,3.05
2023-01-17T00:33:13.523Z,2.88
2023-01-17T00:35:40.940Z,3.00
2023-01-17T00:38:17.933Z,2.42
2023-01-17T00:40:45.698Z,3.28
2023-01-17T00:43:32.831Z,3.45
2023-01-17T00:46:18.339Z,2.72
2023-01-17T00:49:04.024Z,2.78
2023-01-17T00:51:50.514Z,3.78
2023-01-17T00:54:36.717Z,2.45
2023-01-17T00:57:22.745Z,2.92
2023-01-17T01:00:08.321Z,2.58
2023-01-17T01:02:54.568Z,2.95
2023-01-17T01:05:40.057Z,4.47
2023-01-17T01:08:39.117Z,2.75
2023-01-17T01:11:30.305Z,3.35
2023-01-17T01:14:17.396Z,2.47
2023-01-17T01:17:02.868Z,3.00
2023-01-17T01:19:48.319Z,1.65
2023-01-17T01:22:33.788Z,2.30
2023-01-17T01:25:19.273Z,1.50
2023-01-17T01:28:04.473Z,1.70
2023-01-17T01:30:50.052Z,3.08
2023-01-17T01:33:19.811Z,1.35
2023-01-17T01:35:51.886Z,1.08
2023-01-17T01:38:20.942Z,1.20
2023-01-17T01:40:53.624Z,1.00
2023-01-17T01:43:41.008Z,1.40
2023-01-17T01:46:09.999Z,1.40
2023-01-17T01:48:41.783Z,2.13
2023-01-17T01:51:13.405Z,1.05
2023-01-17T01:53:45.678Z,2.33
2023-01-17T01:56:14.673Z,1.80
2023-01-17T01:58:46.805Z,1.63
2023-01-17T02:01:14.478Z,0.80
2023-01-17T02:03:42.188Z,0.68
2023-01-17T02:06:27.348Z,0.80
2023-01-17T02:08:55.743Z,0.65
2023-01-17T02:11:22.602Z,0.60
2023-01-17T02:13:49.219Z,1.58
2023-01-17T02:16:26.157Z,0.30
2023-01-17T02:19:13.054Z,0.25
2023-01-17T02:21:47.701Z,0.77
2023-01-17T02:24:55.500Z,0.57
2023-01-17T02:27:44.964Z,0.65
2023-01-17T02:30:18.735Z,0.20
2023-01-17T02:33:02.069Z,1.10
2023-01-17T02:35:39.231Z,0.28
2023-01-17T02:38:31.137Z,0.38
2023-01-17T02:41:07.677Z,1.00
2023-01-17T02:43:35.945Z,0.20
2023-01-17T02:46:03.153Z,1.15
2023-01-17T02:48:32.741Z,1.55
2023-01-17T02:51:08.240Z,0.20
2023-01-17T02:54:03.042Z,0.38
2023-01-17T02:57:10.857Z,0.30
2023-01-17T02:59:56.601Z,0.57
2023-01-17T03:02:42.837Z,0.45
2023-01-17T03:05:22.010Z,0.13
2023-01-17T03:07:50.728Z,0.20
2023-01-17T03:10:19.309Z,0.38
2023-01-17T03:12:46.405Z,0.10
2023-01-17T03:15:15.543Z,1.85
2023-01-17T03:17:50.488Z,1.30
2023-01-17T03:20:17.372Z,0.10
2023-01-17T03:22:44.073Z,1.95
2023-01-17T03:25:10.806Z,0.15
2023-01-17T03:27:37.494Z,0.10
2023-01-17T03:30:04.831Z,1.10
2023-01-17T03:32:31.518Z,1.65
2023-01-17T03:34:58.259Z,0.15
2023-01-17T03:37:24.937Z,0.15
2023-01-17T03:39:51.579Z,0.45
2023-01-17T03:42:18.227Z,0.00
2023-01-17T03:44:44.888Z,0.22
2023-01-17T03:47:12.277Z,0.95
2023-01-17T03:49:40.065Z,1.80
2023-01-17T03:52:07.344Z,0.20
2023-01-17T03:54:34.054Z,0.57
2023-01-17T03:57:00.728Z,0.10
2023-01-17T03:59:27.449Z,0.20
2023-01-17T04:01:54.130Z,0.20
2023-01-17T04:04:20.951Z,0.52
2023-01-17T04:06:48.046Z,0.30
2023-01-17T04:09:14.782Z,1.10
2023-01-17T04:11:41.522Z,0.80
2023-01-17T04:14:08.324Z,2.92
2023-01-17T04:16:35.618Z,0.57
2023-01-17T04:19:02.349Z,0.22
2023-01-17T04:21:29.124Z,0.40
2023-01-17T04:23:55.736Z,0.68
2023-01-17T04:26:22.466Z,0.35
2023-01-17T04:28:49.401Z,0.10
2023-01-17T04:31:17.176Z,0.38
2023-01-17T04:33:44.146Z,0.50
2023-01-17T04:36:10.813Z,2.00
2023-01-17T04:38:37.442Z,0.20
2023-01-17T04:41:04.301Z,0.85
2023-01-17T04:43:31.164Z,0.40
2023-01-17T04:45:58.526Z,2.75
2023-01-17T04:48:26.069Z,1.77
2023-01-17T04:51:00.487Z,0.50
2023-01-17T04:53:27.585Z,0.85
2023-01-17T04:55:54.240Z,1.92
2023-01-17T04:58:21.031Z,1.40
2023-01-17T05:00:50.859Z,1.30
2023-01-17T05:03:22.290Z,1.25
2023-01-17T05:05:49.320Z,0.68
2023-01-17T05:08:15.934Z,0.93
2023-01-17T05:10:45.182Z,1.15
2023-01-17T05:13:11.795Z,2.35
2023-01-17T05:15:38.731Z,0.75
2023-01-17T05:18:08.542Z,2.83
2023-01-17T05:20:36.561Z,0.77
2023-01-17T05:23:03.325Z,3.33
2023-01-17T05:25:32.028Z,2.22
2023-01-17T05:28:02.016Z,1.40
2023-01-17T05:30:31.058Z,1.63
2023-01-17T05:32:58.849Z,2.15
2023-01-17T05:35:28.534Z,3.40
2023-01-17T05:37:55.451Z,1.63
2023-01-17T05:40:25.762Z,4.90
2023-01-17T05:42:55.268Z,3.53
2023-01-17T05:45:23.528Z,3.70
2023-01-17T05:47:52.799Z,2.05
2023-01-17T05:50:22.873Z,5.55
2023-01-17T05:52:57.379Z,3.05
2023-01-17T05:55:25.812Z,1.63
2023-01-17T05:57:52.873Z,6.28
2023-01-17T06:00:20.551Z,1.77
2023-01-17T06:02:47.680Z,3.33
2023-01-17T06:05:15.038Z,3.45
2023-01-17T06:07:46.213Z,3.08
2023-01-17T06:10:14.533Z,3.45
2023-01-17T06:12:42.641Z,2.25
2023-01-17T06:15:10.476Z,5.45
2023-01-17T06:17:37.477Z,3.55
2023-01-17T06:20:06.264Z,2.90
2023-01-17T06:22:33.377Z,4.10
2023-01-17T06:25:00.502Z,5.60
2023-01-17T06:27:27.271Z,6.40
2023-01-17T06:29:54.029Z,5.78
2023-01-17T06:32:20.725Z,3.88
2023-01-17T06:34:47.412Z,3.45
2023-01-17T06:37:14.083Z,8.18
2023-01-17T06:39:40.734Z,2.10
2023-01-17T06:42:07.402Z,1.52
2023-01-17T06:44:34.041Z,1.48
2023-01-17T06:47:01.760Z,5.47
2023-01-17T06:49:28.351Z,3.22
2023-01-17T06:51:55.005Z,3.38
2023-01-17T06:54:21.714Z,3.20
2023-01-17T06:56:48.426Z,3.53
2023-01-17T06:59:15.112Z,1.95
2023-01-17T07:01:41.882Z,4.97
2023-01-17T07:04:08.711Z,7.03
2023-01-17T07:06:36.572Z,5.35
2023-01-17T07:09:04.265Z,3.47
2023-01-17T07:11:31.579Z,8.25
2023-01-17T07:13:58.367Z,7.13
2023-01-17T07:16:25.164Z,5.50
2023-01-17T07:18:52.053Z,3.22
2023-01-17T07:21:18.865Z,2.72
2023-01-17T07:23:45.494Z,5.55
2023-01-17T07:26:12.120Z,5.70
2023-01-17T07:28:38.763Z,5.63
2023-01-17T07:31:08.584Z,5.03
2023-01-17T07:33:35.350Z,3.97
2023-01-17T07:36:07.394Z,9.70
2023-01-17T07:38:34.763Z,7.75
2023-01-17T07:41:01.602Z,7.60
2023-01-17T07:43:28.352Z,6.28
2023-01-17T07:45:55.435Z,6.70
2023-01-17T07:48:23.975Z,15.48
2023-01-17T07:50:58.381Z,28.27
2023-01-17T07:53:29.939Z,10.68
2023-01-17T07:56:02.303Z,8.48
2023-01-17T07:58:28.943Z,7.53
2023-01-17T08:01:01.610Z,6.32
2023-01-17T08:03:32.183Z,9.32
2023-01-17T08:05:59.336Z,7.32
2023-01-17T08:08:26.278Z,5.32
2023-01-17T08:10:53.402Z,7.68
2023-01-17T08:13:21.969Z,6.85
2023-01-17T08:15:49.776Z,8.68
2023-01-17T08:18:17.364Z,6.35
2023-01-17T08:20:44.829Z,5.07
2023-01-17T08:23:11.743Z,6.47
2023-01-17T08:25:38.898Z,5.20
2023-01-17T08:28:05.569Z,5.40
2023-01-17T08:30:32.539Z,6.07
2023-01-17T08:33:00.225Z,5.22
2023-01-17T08:35:27.836Z,4.00
2023-01-17T08:37:55.819Z,5.93
2023-01-17T08:40:22.976Z,5.78
2023-01-17T08:42:57.232Z,3.50
2023-01-17T08:45:24.016Z,6.68
2023-01-17T08:47:51.070Z,5.72
2023-01-17T08:50:20.986Z,6.47
2023-01-17T08:52:48.959Z,4.75
2023-01-17T08:55:16.045Z,7.05
2023-01-17T08:57:42.833Z,8.38
2023-01-17T09:00:10.486Z,6.68
2023-01-17T09:02:37.223Z,4.03
2023-01-17T09:05:04.094Z,5.88
2023-01-17T09:07:30.803Z,4.60
2023-01-17T09:09:57.472Z,5.63
2023-01-17T09:12:24.280Z,6.75
2023-01-17T09:14:51.012Z,4.18
2023-01-17T09:17:17.702Z,4.63
2023-01-17T09:19:47.616Z,5.35
2023-01-17T09:22:14.812Z,4.90
2023-01-17T09:24:42.116Z,6.75
2023-01-17T09:27:08.848Z,7.47
2023-01-17T09:29:35.758Z,8.07
2023-01-17T09:32:02.547Z,8.35
2023-01-17T09:34:30.442Z,8.20
2023-01-17T09:36:57.184Z,9.20
2023-01-17T09:39:23.979Z,10.88
2023-01-17T09:42:03.034Z,9.77
2023-01-17T09:44:42.867Z,14.18
2023-01-17T09:47:32.620Z,11.05
2023-01-17T09:50:27.017Z,12.18
2023-01-17T09:53:12.454Z,12.05
2023-01-17T09:55:56.016Z,8.82
2023-01-17T09:58:33.865Z,10.90
2023-01-17T10:01:15.303Z,19.67
2023-01-17T10:04:24.816Z,12.65
2023-01-17T10:07:00.702Z,12.63
2023-01-17T10:10:05.801Z,12.73
2023-01-17T10:13:13.441Z,10.32
2023-01-17T10:15:49.403Z,16.88
2023-01-17T10:18:56.465Z,14.50
2023-01-17T10:21:23.111Z,12.82
2023-01-17T10:24:28.571Z,13.15
2023-01-17T10:26:58.319Z,13.52
2023-01-17T10:29:28.359Z,18.98
2023-01-17T10:32:01.979Z,12.90
2023-01-17T10:34:39.514Z,12.30
2023-01-17T10:37:33.980Z,10.57
2023-01-17T10:40:17.658Z,15.35
2023-01-17T10:43:12.322Z,12.27
2023-01-17T10:45:45.934Z,14.48
2023-01-17T10:48:29.829Z,16.85
2023-01-17T10:51:03.465Z,14.48
2023-01-17T10:53:48.438Z,16.02
2023-01-17T10:56:18.214Z,16.73
2023-01-17T10:58:48.067Z,25.00
2023-01-17T11:01:19.451Z,42.17
2023-01-17T11:03:54.580Z,21.17
2023-01-17T11:06:26.326Z,17.10
2023-01-17T11:08:54.144Z,22.27
2023-01-17T11:11:30.057Z,21.40
2023-01-17T11:13:59.645Z,17.42
2023-01-17T11:16:31.181Z,16.70
2023-01-17T11:19:25.756Z,18.65
2023-01-17T11:21:57.496Z,16.38
2023-01-17T11:24:49.090Z,15.18
2023-01-17T11:27:35.620Z,17.33
2023-01-17T11:30:17.954Z,14.57
2023-01-17T11:33:01.038Z,15.65
2023-01-17T11:35:45.124Z,13.25
2023-01-17T11:38:17.844Z,18.42
2023-01-17T11:40:46.385Z,20.00
2023-01-17T11:43:14.225Z,15.30
2023-01-17T11:45:41.780Z,15.13
2023-01-17T11:48:08.470Z,16.88
2023-01-17T11:50:37.499Z,19.98
2023-01-17T11:53:26.306Z,13.05
2023-01-17T11:56:05.512Z,13.05
2023-01-17T11:58:35.616Z,15.63
2023-01-17T12:01:21.371Z,16.10
2023-01-17T12:04:08.199Z,18.85
2023-01-17T12:06:58.678Z,19.60
2023-01-17T12:09:28.452Z,24.33
2023-01-17T12:12:16.715Z,26.10
2023-01-17T12:15:02.770Z,15.70
2023-01-17T12:17:38.381Z,16.80
2023-01-17T12:20:16.871Z,17.13
2023-01-17T12:23:13.867Z,14.73
2023-01-17T12:26:02.685Z,13.82
2023-01-17T12:28:49.389Z,19.27
2023-01-17T12:31:40.263Z,16.75
2023-01-17T12:34:44.465Z,12.35
2023-01-17T12:37:30.463Z,15.85
2023-01-17T12:40:06.296Z,20.25
2023-01-17T12:42:38.536Z,14.60
2023-01-17T12:45:09.897Z,14.20
2023-01-17T12:47:44.473Z,14.60
2023-01-17T12:50:38.736Z,13.05
2023-01-17T12:53:18.063Z,9.50
2023-01-17T12:56:02.126Z,12.27
2023-01-17T12:58:39.446Z,14.05
2023-01-17T13:01:17.443Z,12.32
2023-01-17T13:04:00.222Z,13.18
2023-01-17T13:06:46.771Z,13.65
2023-01-17T13:09:18.462Z,13.10
2023-01-17T13:12:10.263Z,9.63
2023-01-17T13:14:36.954Z,9.95
2023-01-17T13:17:25.467Z,12.25
2023-01-17T13:20:11.069Z,11.00
2023-01-17T13:22:39.692Z,10.52
2023-01-17T13:25:29.682Z,10.00
2023-01-17T13:28:06.813Z,12.88
2023-01-17T13:30:43.292Z,11.43
2023-01-17T13:33:31.797Z,13.60
2023-01-17T13:36:07.721Z,8.27
2023-01-17T13:38:37.283Z,9.13
2023-01-17T13:41:27.389Z,8.77
2023-01-17T13:44:12.813Z,9.27
2023-01-17T13:47:02.704Z,7.63
2023-01-17T13:49:29.345Z,6.40
2023-01-17T13:52:12.051Z,5.00
2023-01-17T13:54:47.623Z,5.90
2023-01-17T13:57:24.361Z,6.88
2023-01-17T13:59:51.322Z,14.20
2023-01-17T14:02:33.231Z,7.45
2023-01-17T14:05:15.221Z,4.35
2023-01-17T14:08:12.910Z,6.57
2023-01-17T14:10:45.121Z,12.93
2023-01-17T14:13:37.827Z,6.80
2023-01-17T14:16:28.943Z,10.50
2023-01-17T14:18:55.943Z,11.82
2023-01-17T14:21:25.474Z,13.88
2023-01-17T14:24:04.070Z,16.98
2023-01-17T14:26:36.632Z,11.85
2023-01-17T14:29:46.466Z,12.05
2023-01-17T14:32:19.334Z,10.52
2023-01-17T14:34:48.958Z,14.38
2023-01-17T14:37:40.540Z,11.77
2023-01-17T14:40:19.450Z,13.38
2023-01-17T14:42:51.860Z,13.05
2023-01-17T14:45:28.337Z,18.40
2023-01-17T14:47:56.898Z,19.55
2023-01-17T14:50:35.951Z,10.88
2023-01-17T14:53:17.978Z,12.68
2023-01-17T14:55:47.749Z,13.18
2023-01-17T14:58:23.461Z,12.35
2023-01-17T15:00:59.772Z,13.38
2023-01-17T15:03:27.588Z,12.93
2023-01-17T15:05:55.979Z,15.10
2023-01-17T15:08:29.942Z,15.10
2023-01-17T15:11:07.100Z,19.23
2023-01-17T15:13:44.585Z,18.35
2023-01-17T15:16:21.497Z,14.57
2023-01-17T15:18:48.751Z,11.23
2023-01-17T15:21:19.425Z,16.15
2023-01-17T15:23:57.680Z,17.58
2023-01-17T15:26:28.554Z,13.20
2023-01-17T15:29:03.789Z,21.15
2023-01-17T15:31:41.411Z,11.77
2023-01-17T15:34:12.234Z,10.63
2023-01-17T15:36:39.173Z,12.98
2023-01-17T15:39:18.160Z,14.20
2023-01-17T15:41:44.781Z,9.48
2023-01-17T15:44:31.130Z,9.60
2023-01-17T15:47:03.571Z,11.13
2023-01-17T15:49:30.893Z,14.88
2023-01-17T15:52:10.402Z,10.73
2023-01-17T15:54:56.047Z,12.23
2023-01-17T15:57:37.480Z,12.05
2023-01-17T16:00:32.362Z,10.98
2023-01-17T16:02:59.506Z,14.80
2023-01-17T16:05:30.903Z,17.05
2023-01-17T16:08:04.217Z,21.38
2023-01-17T16:10:33.138Z,21.88
2023-01-17T16:13:00.091Z,21.58
2023-01-17T16:15:27.858Z,20.60
2023-01-17T16:18:16.496Z,19.90
2023-01-17T16:21:07.961Z,21.85
2023-01-17T16:23:34.614Z,19.23
2023-01-17T16:26:01.291Z,20.02
2023-01-17T16:28:27.936Z,14.02
2023-01-17T16:30:54.724Z,20.70
2023-01-17T16:33:21.406Z,17.77
2023-01-17T16:35:48.059Z,19.13
2023-01-17T16:38:15.861Z,18.52
2023-01-17T16:40:44.424Z,22.42
2023-01-17T16:43:12.548Z,22.02
2023-01-17T16:45:41.459Z,19.27
2023-01-17T16:48:08.976Z,25.65
2023-01-17T16:50:40.167Z,27.88
2023-01-17T16:53:06.976Z,32.55
2023-01-17T16:55:33.750Z,33.05
2023-01-17T16:58:00.432Z,32.80
2023-01-17T17:00:27.120Z,22.55
2023-01-17T17:02:54.096Z,22.17
2023-01-17T17:05:20.859Z,23.45
2023-01-17T17:07:50.126Z,18.52
2023-01-17T17:10:20.479Z,21.63
2023-01-17T17:12:47.355Z,22.20
2023-01-17T17:15:14.559Z,20.15
2023-01-17T17:17:42.978Z,18.48
2023-01-17T17:20:15.387Z,23.27
2023-01-17T17:22:43.879Z,14.60
2023-01-17T17:25:11.995Z,18.05
2023-01-17T17:27:39.004Z,16.67
2023-01-17T17:30:06.410Z,14.82
2023-01-17T17:32:33.308Z,20.05
2023-01-17T17:35:00.184Z,20.80
2023-01-17T17:37:29.046Z,18.35
2023-01-17T17:39:58.877Z,21.27
2023-01-17T17:42:25.795Z,25.80
2023-01-17T17:44:52.619Z,24.83
2023-01-17T17:47:19.292Z,27.33
2023-01-17T17:49:45.996Z,18.65
2023-01-17T17:52:12.801Z,21.95
2023-01-17T17:54:39.468Z,27.40
2023-01-17T17:57:06.497Z,17.77
2023-01-17T17:59:33.465Z,16.75
2023-01-17T18:02:00.104Z,20.17
2023-01-17T18:04:27.136Z,18.05
2023-01-17T18:06:57.804Z,19.52
2023-01-17T18:09:24.800Z,19.70
2023-01-17T18:11:51.556Z,22.80
2023-01-17T18:14:20.884Z,23.48
2023-01-17T18:16:47.731Z,15.32
2023-01-17T18:19:24.026Z,14.75
2023-01-17T18:21:51.503Z,15.13
2023-01-17T18:24:20.617Z,16.40
2023-01-17T18:26:50.057Z,20.75
2023-01-17T18:29:18.402Z,21.70
2023-01-17T18:31:45.772Z,22.35
2023-01-17T18:34:14.861Z,31.88
2023-01-17T18:36:42.401Z,38.40
2023-01-17T18:39:17.433Z,29.00
2023-01-17T18:41:44.318Z,27.42
2023-01-17T18:44:11.244Z,23.08
2023-01-17T18:46:38.568Z,18.05
2023-01-17T18:49:05.745Z,15.18
2023-01-17T18:51:34.326Z,16.95
2023-01-17T18:54:05.332Z,14.85
2023-01-17T18:56:36.649Z,18.65
2023-01-17T18:59:08.949Z,29.98
2023-01-17T19:01:36.403Z,20.08
2023-01-17T19:04:05.306Z,20.08
2023-01-17T19:06:41.437Z,17.90
2023-01-17T19:09:09.183Z,19.40
2023-01-17T19:11:39.252Z,20.13
2023-01-17T19:14:06.459Z,17.58
2023-01-17T19:16:39.220Z,21.55
2023-01-17T19:19:08.232Z,19.25
2023-01-17T19:21:35.574Z,20.77
2023-01-17T19:24:02.804Z,28.05
2023-01-17T19:26:29.961Z,27.70
2023-01-17T19:28:58.678Z,27.33
2023-01-17T19:31:30.342Z,22.20
2023-01-17T19:34:00.282Z,24.67
2023-01-17T19:36:31.093Z,20.27
2023-01-17T19:39:06.327Z,20.55
2023-01-17T19:41:40.820Z,23.85
2023-01-17T19:44:09.098Z,27.10
2023-01-17T19:46:36.842Z,24.85
2023-01-17T19:49:05.992Z,27.67
2023-01-17T19:51:32.804Z,22.23
2023-01-17T19:54:03.926Z,21.35
2023-01-17T19:56:30.790Z,25.55
2023-01-17T19:59:00.785Z,18.50
2023-01-17T20:01:30.171Z,26.52
2023-01-17T20:03:58.501Z,24.80
2023-01-17T20:06:28.751Z,28.77
2023-01-17T20:08:55.768Z,28.48
2023-01-17T20:11:23.926Z,37.15
2023-01-17T20:13:55.596Z,32.50
2023-01-17T20:16:23.683Z,33.42
2023-01-17T20:18:50.538Z,28.02
2023-01-17T20:21:28.533Z,25.42
2023-01-17T20:23:57.015Z,23.10
2023-01-17T20:26:30.801Z,23.83
2023-01-17T20:28:57.447Z,19.87
2023-01-17T20:31:25.403Z,22.17
2023-01-17T20:33:56.087Z,28.13
2023-01-17T20:36:25.585Z,20.47
2023-01-17T20:38:54.263Z,20.35
2023-01-17T20:41:23.368Z,25.17
2023-01-17T20:43:52.403Z,28.50
2023-01-17T20:46:20.468Z,27.67
2023-01-17T20:48:49.793Z,28.33
2023-01-17T20:51:17.257Z,28.25
2023-01-17T20:53:45.614Z,29.45
2023-01-17T20:56:15.262Z,24.08
2023-01-17T20:58:42.719Z,27.38
2023-01-17T21:01:11.359Z,26.38
2023-01-17T21:03:39.309Z,24.27
2023-01-17T21:06:07.970Z,27.60
2023-01-17T21:08:40.846Z,27.00
2023-01-17T21:11:09.193Z,24.77
2023-01-17T21:13:36.210Z,31.75
2023-01-17T21:16:03.286Z,28.87
2023-01-17T21:18:33.944Z,29.77
2023-01-17T21:21:07.347Z,24.40
2023-01-17T21:23:35.356Z,23.85
2023-01-17T21:26:02.053Z,21.10
2023-01-17T21:28:30.639Z,24.20
2023-01-17T21:30:57.901Z,22.00
2023-01-17T21:33:25.865Z,18.65
2023-01-17T21:35:53.061Z,14.70
2023-01-17T21:38:19.891Z,15.23
2023-01-17T21:40:46.907Z,13.07
2023-01-17T21:43:13.597Z,13.75
2023-01-17T21:45:41.440Z,18.67
2023-01-17T21:48:13.386Z,17.40
2023-01-17T21:50:40.337Z,15.93
2023-01-17T21:53:08.558Z,16.23
2023-01-17T21:55:54.389Z,15.40
2023-01-17T21:58:39.851Z,23.75
2023-01-17T22:01:21.454Z,20.95
2023-01-17T22:03:56.732Z,22.00
2023-01-17T22:06:26.070Z,22.90
2023-01-17T22:08:52.941Z,18.03
2023-01-17T22:11:22.709Z,20.60
2023-01-17T22:13:49.998Z,17.00
2023-01-17T22:16:19.446Z,13.27
2023-01-17T22:18:46.794Z,16.03
2023-01-17T22:21:16.595Z,26.87
2023-01-17T22:23:53.989Z,20.40
2023-01-17T22:26:23.110Z,15.30
2023-01-17T22:28:49.948Z,17.05
2023-01-17T22:31:23.154Z,10.50
2023-01-17T22:33:55.977Z,12.20
2023-01-17T22:36:23.524Z,12.90
2023-01-17T22:38:50.581Z,10.35
2023-01-17T22:41:20.609Z,8.68
2023-01-17T22:43:52.467Z,10.43
2023-01-17T22:46:25.187Z,15.90
2023-01-17T22:48:53.393Z,8.03
2023-01-17T22:51:21.652Z,7.57
2023-01-17T22:53:53.803Z,7.88
2023-01-17T22:56:22.883Z,7.40
2023-01-17T22:58:50.038Z,6.88
2023-01-17T23:01:22.459Z,8.20
2023-01-17T23:03:54.394Z,6.93
2023-01-17T23:06:25.557Z,7.73
2023-01-17T23:08:54.978Z,10.37
2023-01-17T23:11:40.908Z,7.93
2023-01-17T23:14:17.081Z,7.40
2023-01-17T23:17:08.012Z,6.23
2023-01-17T23:19:37.511Z,7.00
2023-01-17T23:22:16.458Z,7.00
2023-01-17T23:24:51.446Z,6.32
2023-01-17T23:27:38.406Z,6.97
2023-01-17T23:30:13.715Z,6.97
2023-01-17T23:32:50.099Z,7.33
2023-01-17T23:35:18.629Z,7.03
2023-01-17T23:38:04.097Z,7.47
2023-01-17T23:40:32.796Z,9.30
2023-01-17T23:43:18.357Z,9.45
2023-01-17T23:45:45.192Z,8.23
2023-01-17T23:48:11.856Z,11.10
2023-01-17T23:50:40.699Z,15.27
2023-01-17T23:53:08.319Z,8.27
2023-01-17T23:55:40.794Z,7.80
2023-01-17T23:58:09.596Z,7.05
